Time;durP1;ratioP1;P1;durP2;ratioP2;P2;SDS_P1;SDS_P2;PMS_P1;PMS_P2;Temp;Humidity;BMP_temperature;BMP_pressure;BME280_temperature;BME280_humidity;BME280_pressure;Samples;Min_cycle;Max_cycle;Signal;HPM_P1;HPM_P2
2022/05/20 05:14:16;;;;;;;11.85;4.43;;;;;;;;;;5374534;23;20016;-59
2022/05/20 05:16:43;;;;;;;9.73;3.60;;;;;;;;;;4879395;29;20029;-62
2022/05/20 05:19:09;;;;;;;6.75;2.80;;;;;;;;;;4879019;29;20061;-58
2022/05/20 05:21:35;;;;;;;9.45;2.88;;;;;;;;;;4879546;29;20046;-57
2022/05/20 05:24:01;;;;;;;8.43;3.13;;;;;;;;;;4879228;29;20500;-60
2022/05/20 05:26:31;;;;;;;7.00;3.00;;;;;;;;;;4879556;29;20033;-67
2022/05/20 05:28:57;;;;;;;5.38;2.92;;;;;;;;;;4879106;29;20393;-63
2022/05/20 05:31:25;;;;;;;12.68;4.28;;;;;;;;;;4878931;29;20033;-57
2022/05/20 05:33:52;;;;;;;6.45;3.08;;;;;;;;;;4879096;29;20033;-63
2022/05/20 05:36:18;;;;;;;5.55;2.70;;;;;;;;;;4862503;29;20036;-56
2022/05/20 05:38:44;;;;;;;6.78;2.75;;;;;;;;;;4879163;29;20126;-57
2022/05/20 05:41:11;;;;;;;6.72;2.42;;;;;;;;;;4878395;29;20493;-57
2022/05/20 05:43:37;;;;;;;8.40;2.90;;;;;;;;;;4860610;29;20069;-56
2022/05/20 05:46:04;;;;;;;8.00;3.42;;;;;;;;;;4860317;29;20076;-60
2022/05/20 05:48:30;;;;;;;9.68;3.50;;;;;;;;;;4859523;29;20036;-61
2022/05/20 05:50:56;;;;;;;9.45;3.03;;;;;;;;;;4859792;29;20498;-57
2022/05/20 05:53:27;;;;;;;8.60;3.05;;;;;;;;;;4859620;29;20050;-56
2022/05/20 05:56:00;;;;;;;9.85;3.00;;;;;;;;;;4859827;29;20030;-57
2022/05/20 05:58:26;;;;;;;10.90;2.80;;;;;;;;;;4859753;29;20032;-58
2022/05/20 06:00:54;;;;;;;8.70;3.00;;;;;;;;;;4859806;29;20036;-58
2022/05/20 06:03:20;;;;;;;6.05;2.53;;;;;;;;;;4859433;29;20037;-63
2022/05/20 06:05:47;;;;;;;5.35;3.00;;;;;;;;;;4859717;29;20036;-66
2022/05/20 06:08:13;;;;;;;11.52;3.10;;;;;;;;;;4859684;29;20033;-62
2022/05/20 06:10:40;;;;;;;6.35;2.72;;;;;;;;;;4859435;29;20457;-57
2022/05/20 06:13:06;;;;;;;5.47;2.25;;;;;;;;;;4859355;29;20033;-60
2022/05/20 06:15:32;;;;;;;6.28;2.63;;;;;;;;;;4846280;29;20056;-58
2022/05/20 06:17:59;;;;;;;9.48;2.97;;;;;;;;;;4840732;29;20037;-63
2022/05/20 06:20:26;;;;;;;8.63;2.60;;;;;;;;;;4841085;29;20038;-60
2022/05/20 06:22:52;;;;;;;8.13;2.70;;;;;;;;;;4841312;29;20217;-62
2022/05/20 06:25:19;;;;;;;5.85;2.67;;;;;;;;;;4840858;29;20439;-63
2022/05/20 06:27:45;;;;;;;4.93;2.60;;;;;;;;;;4840711;29;20030;-58
2022/05/20 06:30:13;;;;;;;7.03;2.53;;;;;;;;;;4840366;29;20126;-58
2022/05/20 06:32:39;;;;;;;11.95;2.70;;;;;;;;;;4840668;29;20072;-57
2022/05/20 06:40:47;;;;;;;5.22;2.40;;;;;;;;;;4841277;29;20129;-58
2022/05/20 06:43:14;;;;;;;9.32;3.70;;;;;;;;;;4840480;29;20493;-60
2022/05/20 06:45:40;;;;;;;8.40;2.55;;;;;;;;;;4841057;29;20030;-57
2022/05/20 06:48:06;;;;;;;8.10;2.13;;;;;;;;;;4840651;29;20070;-62
2022/05/20 06:50:32;;;;;;;6.32;1.70;;;;;;;;;;4840470;29;20046;-58
2022/05/20 06:52:58;;;;;;;4.30;1.77;;;;;;;;;;4840433;29;20065;-63
2022/05/20 06:55:24;;;;;;;8.05;1.98;;;;;;;;;;4840681;29;20037;-57
2022/05/20 06:57:51;;;;;;;3.90;1.80;;;;;;;;;;4840696;29;20038;-57
2022/05/20 07:00:17;;;;;;;4.53;1.60;;;;;;;;;;4840340;29;20379;-64
2022/05/20 07:02:44;;;;;;;6.18;1.77;;;;;;;;;;4840465;29;20439;-62
2022/05/20 07:05:10;;;;;;;6.93;1.77;;;;;;;;;;4840148;29;20067;-60
2022/05/20 07:07:37;;;;;;;2.95;1.73;;;;;;;;;;4839893;29;20513;-61
2022/05/20 07:10:03;;;;;;;8.43;2.20;;;;;;;;;;4839921;29;20126;-58
2022/05/20 07:12:29;;;;;;;7.55;1.77;;;;;;;;;;4839835;29;20029;-57
2022/05/20 07:14:55;;;;;;;6.00;1.90;;;;;;;;;;4839426;29;20506;-57
2022/05/20 07:17:22;;;;;;;4.97;1.42;;;;;;;;;;4839926;29;20383;-64
2022/05/20 07:19:51;;;;;;;2.83;1.58;;;;;;;;;;4840401;29;20030;-58
2022/05/20 07:22:17;;;;;;;3.95;1.15;;;;;;;;;;4839904;29;20478;-59
2022/05/20 07:24:43;;;;;;;7.82;1.55;;;;;;;;;;4839639;29;20049;-58
2022/05/20 07:27:09;;;;;;;5.70;1.48;;;;;;;;;;4840237;29;20030;-62
2022/05/20 07:29:35;;;;;;;4.90;1.40;;;;;;;;;;4823726;29;20049;-61
2022/05/20 07:32:01;;;;;;;6.15;1.60;;;;;;;;;;4840293;29;20033;-58
2022/05/20 07:34:27;;;;;;;5.22;1.58;;;;;;;;;;4839999;29;20038;-63
2022/05/20 07:36:54;;;;;;;3.10;1.50;;;;;;;;;;4840157;29;20037;-59
2022/05/20 07:39:20;;;;;;;6.38;1.65;;;;;;;;;;4839939;29;20073;-59
2022/05/20 07:41:47;;;;;;;5.90;1.85;;;;;;;;;;4840841;29;20125;-62
2022/05/20 07:44:13;;;;;;;4.65;1.30;;;;;;;;;;4843973;29;20101;-58
2022/05/20 07:46:39;;;;;;;2.83;1.52;;;;;;;;;;4843323;29;20041;-58
2022/05/20 07:49:05;;;;;;;5.32;1.80;;;;;;;;;;4845808;29;20061;-57
2022/05/20 07:51:32;;;;;;;5.22;1.20;;;;;;;;;;4852086;29;20037;-58
2022/05/20 07:54:01;;;;;;;2.97;1.10;;;;;;;;;;4850653;29;20029;-58
2022/05/20 07:56:30;;;;;;;7.15;1.45;;;;;;;;;;4852972;29;20471;-58
2022/05/20 07:58:59;;;;;;;1.98;1.40;;;;;;;;;;4850261;29;20049;-59
2022/05/20 08:01:27;;;;;;;3.78;1.30;;;;;;;;;;4851683;29;20606;-64
2022/05/20 08:06:40;;;;;;;5.07;1.70;;;;;;;;;;4843869;29;20040;-58
2022/05/20 08:09:06;;;;;;;2.45;1.10;;;;;;;;;;4842735;29;20038;-57
2022/05/20 08:11:33;;;;;;;7.13;1.63;;;;;;;;;;4851064;29;20070;-58
2022/05/20 08:13:59;;;;;;;4.93;1.35;;;;;;;;;;4861480;29;20061;-56
2022/05/20 08:16:25;;;;;;;4.68;1.42;;;;;;;;;;4861110;29;20061;-57
2022/05/20 08:18:52;;;;;;;5.03;1.25;;;;;;;;;;4861261;29;20054;-63
2022/05/20 08:21:18;;;;;;;5.32;1.50;;;;;;;;;;4861501;29;20029;-62
2022/05/20 08:23:45;;;;;;;5.68;1.27;;;;;;;;;;4861319;29;20028;-59
2022/05/20 08:26:16;;;;;;;11.40;2.20;;;;;;;;;;4860977;29;20038;-62
2022/05/20 08:28:43;;;;;;;6.80;1.52;;;;;;;;;;4861466;29;20053;-63
2022/05/20 08:31:09;;;;;;;5.57;1.50;;;;;;;;;;4861482;29;20124;-58
2022/05/20 08:33:35;;;;;;;6.80;1.35;;;;;;;;;;4861259;29;20061;-59
2022/05/20 08:36:03;;;;;;;3.42;1.58;;;;;;;;;;4861271;29;20029;-64
2022/05/20 08:38:29;;;;;;;2.55;1.45;;;;;;;;;;4861371;29;20037;-63
2022/05/20 08:40:55;;;;;;;4.55;1.17;;;;;;;;;;4860758;29;20030;-63
2022/05/20 08:43:25;;;;;;;3.75;1.60;;;;;;;;;;4861107;29;20029;-63
2022/05/20 08:45:52;;;;;;;4.45;1.60;;;;;;;;;;4861543;29;20041;-59
2022/05/20 08:48:18;;;;;;;7.53;1.65;;;;;;;;;;4861059;29;20120;-62
2022/05/20 08:50:44;;;;;;;5.18;1.50;;;;;;;;;;4861221;29;20182;-65
2022/05/20 08:53:25;;;;;;;3.83;1.42;;;;;;;;;;4860330;29;20148;-63
2022/05/20 08:55:51;;;;;;;5.97;1.80;;;;;;;;;;4861132;29;20037;-58
2022/05/20 08:58:20;;;;;;;5.32;1.40;;;;;;;;;;4860909;29;20064;-63
2022/05/20 09:00:46;;;;;;;4.53;1.23;;;;;;;;;;4844251;29;20124;-62
2022/05/20 09:03:12;;;;;;;2.83;1.30;;;;;;;;;;4860844;29;20449;-64
2022/05/20 09:05:40;;;;;;;4.47;1.30;;;;;;;;;;4860917;29;20030;-64
2022/05/20 09:08:15;;;;;;;3.47;1.27;;;;;;;;;;4843814;29;20033;-62
2022/05/20 09:10:46;;;;;;;2.42;1.20;;;;;;;;;;4860875;29;20046;-60
2022/05/20 09:13:22;;;;;;;4.85;1.30;;;;;;;;;;4860524;29;20394;-63
2022/05/20 09:16:01;;;;;;;7.03;1.30;;;;;;;;;;4860021;29;20535;-61
2022/05/20 09:18:32;;;;;;;7.00;1.55;;;;;;;;;;4859775;29;20029;-58
2022/05/20 09:20:58;;;;;;;4.75;1.92;;;;;;;;;;4844269;29;20116;-59
2022/05/20 09:23:24;;;;;;;3.63;1.23;;;;;;;;;;4860492;29;20040;-59
2022/05/20 09:26:01;;;;;;;4.93;1.10;;;;;;;;;;4860575;29;20038;-58
2022/05/20 09:28:36;;;;;;;4.28;1.50;;;;;;;;;;4860418;29;20021;-60
2022/05/20 09:31:12;;;;;;;4.18;1.70;;;;;;;;;;4860166;29;20105;-63
2022/05/20 09:33:39;;;;;;;4.32;1.63;;;;;;;;;;4860134;29;20025;-60
2022/05/20 09:36:05;;;;;;;4.10;2.13;;;;;;;;;;4859856;29;20459;-59
2022/05/20 09:38:41;;;;;;;7.18;2.60;;;;;;;;;;4860078;29;20018;-59
2022/05/20 09:41:10;;;;;;;9.70;4.57;;;;;;;;;;4860239;29;20030;-63
2022/05/20 09:43:39;;;;;;;9.43;3.72;;;;;;;;;;4859946;29;20052;-57
2022/05/20 09:46:06;;;;;;;13.68;6.68;;;;;;;;;;4859752;29;20048;-62
2022/05/20 09:48:50;;;;;;;6.85;2.08;;;;;;;;;;4859883;29;20582;-63
2022/05/20 09:51:20;;;;;;;3.50;2.33;;;;;;;;;;4860025;29;20071;-58
2022/05/20 09:54:00;;;;;;;3.28;1.30;;;;;;;;;;4860207;29;20025;-58
2022/05/20 09:56:30;;;;;;;3.72;1.40;;;;;;;;;;4859439;29;20048;-61
2022/05/20 09:59:06;;;;;;;3.25;1.55;;;;;;;;;;4859862;29;20032;-61
2022/05/20 10:01:32;;;;;;;2.88;1.55;;;;;;;;;;4858106;29;20042;-57
2022/05/20 10:04:01;;;;;;;3.00;1.50;;;;;;;;;;4859435;29;20029;-62
2022/05/20 10:06:31;;;;;;;4.13;1.48;;;;;;;;;;4854266;29;20060;-61
2022/05/20 10:09:06;;;;;;;5.53;2.25;;;;;;;;;;4840458;29;20467;-62
2022/05/20 10:11:46;;;;;;;4.15;1.83;;;;;;;;;;4840520;29;20078;-61
2022/05/20 10:14:12;;;;;;;7.07;1.95;;;;;;;;;;4824338;29;20383;-60
2022/05/20 10:16:56;;;;;;;3.25;1.80;;;;;;;;;;4840680;29;20049;-58
2022/05/20 10:19:36;;;;;;;2.55;1.50;;;;;;;;;;4840651;29;20041;-62
2022/05/20 10:22:03;;;;;;;4.45;1.50;;;;;;;;;;4840991;29;20037;-63
2022/05/20 10:24:32;;;;;;;5.63;1.50;;;;;;;;;;4840713;29;20038;-62
2022/05/20 10:27:03;;;;;;;5.30;1.48;;;;;;;;;;4840601;29;20034;-59
2022/05/20 10:32:47;;;;;;;1.92;1.58;;;;;;;;;;4844107;29;20041;-60
2022/05/20 10:35:21;;;;;;;4.25;2.00;;;;;;;;;;4851211;29;20528;-62
2022/05/20 10:37:49;;;;;;;5.43;1.80;;;;;;;;;;4858885;29;20037;-61
2022/05/20 10:40:30;;;;;;;4.43;2.25;;;;;;;;;;4859130;29;20419;-60
2022/05/20 10:43:14;;;;;;;5.88;1.67;;;;;;;;;;4858899;29;20033;-62
2022/05/20 10:48:35;;;;;;;5.15;2.20;;;;;;;;;;4858665;29;20467;-61
2022/05/20 10:51:20;;;;;;;4.70;2.03;;;;;;;;;;4858781;29;20045;-61
2022/05/20 10:53:49;;;;;;;2.30;1.60;;;;;;;;;;4859182;29;20022;-62
2022/05/20 10:56:18;;;;;;;3.58;1.67;;;;;;;;;;4858837;29;20030;-63
2022/05/20 10:58:58;;;;;;;7.32;1.67;;;;;;;;;;4858535;29;20062;-62
2022/05/20 11:01:34;;;;;;;6.97;1.90;;;;;;;;;;4858742;29;20451;-62
2022/05/20 11:04:20;;;;;;;5.70;1.50;;;;;;;;;;4857908;29;20033;-61
2022/05/20 11:06:46;;;;;;;2.80;1.65;;;;;;;;;;4858293;29;20128;-60
2022/05/20 11:09:12;;;;;;;3.45;1.40;;;;;;;;;;4857908;29;20125;-61
2022/05/20 11:11:38;;;;;;;2.50;1.38;;;;;;;;;;4858283;29;20435;-61
2022/05/20 11:14:04;;;;;;;6.60;1.58;;;;;;;;;;4857758;29;20062;-61
2022/05/20 11:16:36;;;;;;;8.82;1.65;;;;;;;;;;4855914;29;20108;-61
2022/05/20 11:19:02;;;;;;;;;;;;;;;;;;4842435;29;20029;-61
2022/05/20 11:21:34;;;;;;;12.05;2.80;;;;;;;;;;4847034;29;19935;-61
2022/05/20 11:24:06;;;;;;;9.15;4.97;;;;;;;;;;4849717;29;20038;-62
2022/05/20 11:26:32;;;;;;;;;;;;;;;;;;4849600;29;20040;-61
2022/05/20 11:29:18;;;;;;;14.07;5.93;;;;;;;;;;4846268;29;20002;-61
2022/05/20 11:31:50;;;;;;;9.80;4.03;;;;;;;;;;4852442;29;20108;-62
2022/05/20 11:34:26;;;;;;;5.55;2.60;;;;;;;;;;4852909;29;20026;-62
2022/05/20 11:36:54;;;;;;;4.35;3.05;;;;;;;;;;4854110;29;20093;-62
2022/05/20 11:39:26;;;;;;;1.67;1.30;;;;;;;;;;4854364;29;20030;-62
2022/05/20 11:42:11;;;;;;;2.42;1.40;;;;;;;;;;4848145;29;20401;-62
2022/05/20 11:44:51;;;;;;;3.20;1.60;;;;;;;;;;4846121;29;20541;-62
2022/05/20 11:47:25;;;;;;;3.17;1.48;;;;;;;;;;4838986;29;20436;-62
2022/05/20 11:50:09;;;;;;;9.73;3.80;;;;;;;;;;4839405;29;20133;-61
2022/05/20 11:52:48;;;;;;;19.38;7.43;;;;;;;;;;4839572;29;20038;-61
2022/05/20 11:55:23;;;;;;;3.50;1.77;;;;;;;;;;4839482;29;20519;-62
2022/05/20 11:57:51;;;;;;;2.13;1.48;;;;;;;;;;4839664;29;20394;-62
2022/05/20 12:00:19;;;;;;;30.65;8.25;;;;;;;;;;4839321;29;20487;-62
2022/05/20 12:03:04;;;;;;;23.65;7.05;;;;;;;;;;4839758;29;20079;-62
2022/05/20 12:05:33;;;;;;;2.85;1.70;;;;;;;;;;4839104;29;20030;-62
2022/05/20 12:07:59;;;;;;;13.52;4.18;;;;;;;;;;4839607;29;20438;-63
2022/05/20 12:10:31;;;;;;;15.05;4.03;;;;;;;;;;4839687;29;20097;-60
2022/05/20 12:13:16;;;;;;;18.55;5.40;;;;;;;;;;4839296;29;20037;-60
2022/05/20 12:15:44;;;;;;;10.82;3.22;;;;;;;;;;4838975;29;20077;-61
2022/05/20 12:24:28;;;;;;;3.72;1.77;;;;;;;;;;4839900;29;20052;-62
2022/05/20 12:26:55;;;;;;;5.00;2.03;;;;;;;;;;4839534;29;20132;-62
2022/05/20 12:29:39;;;;;;;6.60;2.53;;;;;;;;;;4840838;29;20038;-63
2022/05/20 12:32:17;;;;;;;6.68;2.30;;;;;;;;;;4842913;29;20105;-61
2022/05/20 12:34:45;;;;;;;2.88;1.55;;;;;;;;;;4843814;29;20042;-61
2022/05/20 12:37:31;;;;;;;3.78;1.73;;;;;;;;;;4842887;29;20447;-61
2022/05/20 12:39:57;;;;;;;3.65;1.55;;;;;;;;;;4843131;29;20038;-61
2022/05/20 12:42:25;;;;;;;3.67;1.83;;;;;;;;;;4843080;29;20030;-61
2022/05/20 12:44:52;;;;;;;7.65;2.55;;;;;;;;;;4843164;29;20163;-61
2022/05/20 12:47:28;;;;;;;8.52;2.05;;;;;;;;;;4842693;29;20026;-61
2022/05/20 12:49:59;;;;;;;3.97;1.60;;;;;;;;;;4842150;29;20042;-61
2022/05/20 12:52:49;;;;;;;6.45;2.80;;;;;;;;;;4844449;29;20518;-61
2022/05/20 12:55:21;;;;;;;3.83;1.60;;;;;;;;;;4758433;30;20044;-61
2022/05/20 12:57:54;;;;;;;4.63;1.70;;;;;;;;;;4762918;30;20047;-62
2022/05/20 13:00:49;;;;;;;4.47;1.60;;;;;;;;;;4759760;30;20035;-61
2022/05/20 13:03:19;;;;;;;6.40;2.05;;;;;;;;;;4731530;30;20058;-61
2022/05/20 13:05:47;;;;;;;6.25;2.38;;;;;;;;;;4731513;30;20037;-61
2022/05/20 13:08:21;;;;;;;9.43;2.00;;;;;;;;;;4731916;30;20040;-62
2022/05/20 13:10:47;;;;;;;6.60;2.50;;;;;;;;;;4732125;30;20106;-60
2022/05/20 13:13:15;;;;;;;6.82;2.30;;;;;;;;;;4731571;30;20045;-62
2022/05/20 13:15:46;;;;;;;5.10;2.20;;;;;;;;;;4731855;30;20469;-62
2022/05/20 13:18:23;;;;;;;11.68;2.35;;;;;;;;;;4731276;30;20032;-62
2022/05/20 13:20:50;;;;;;;4.45;2.05;;;;;;;;;;4730077;30;20051;-61
2022/05/20 13:23:23;;;;;;;3.67;1.60;;;;;;;;;;4730913;30;20040;-61
2022/05/20 13:25:50;;;;;;;3.70;1.95;;;;;;;;;;4729951;30;20562;-61
2022/05/20 13:28:42;;;;;;;3.83;2.03;;;;;;;;;;4731994;30;20044;-60
2022/05/20 13:31:11;;;;;;;4.20;1.90;;;;;;;;;;4731876;29;20078;-61
2022/05/20 13:33:39;;;;;;;2.42;1.40;;;;;;;;;;4802605;29;20043;-61
2022/05/20 13:36:06;;;;;;;3.47;1.90;;;;;;;;;;4800434;29;20038;-61
2022/05/20 13:38:34;;;;;;;3.75;2.08;;;;;;;;;;4805282;29;20454;-60
2022/05/20 13:41:00;;;;;;;10.68;3.22;;;;;;;;;;4849858;29;20086;-60
2022/05/20 13:43:27;;;;;;;24.95;3.33;;;;;;;;;;4850939;29;20080;-60
2022/05/20 13:51:30;;;;;;;5.13;2.35;;;;;;;;;;4850205;29;20102;-60
2022/05/20 13:53:58;;;;;;;7.97;2.50;;;;;;;;;;4849689;29;20382;-61
2022/05/20 13:56:28;;;;;;;7.43;3.63;;;;;;;;;;4851495;29;20022;-60
2022/05/20 13:58:55;;;;;;;7.97;2.72;;;;;;;;;;4850722;29;20105;-60
2022/05/20 14:01:22;;;;;;;8.95;3.00;;;;;;;;;;4849081;29;20018;-61
2022/05/20 14:03:49;;;;;;;5.35;3.03;;;;;;;;;;4850775;29;20449;-61
2022/05/20 14:06:17;;;;;;;6.10;2.70;;;;;;;;;;4850798;29;20091;-61
2022/05/20 14:08:45;;;;;;;6.68;3.30;;;;;;;;;;4849236;29;20026;-60
2022/05/20 14:11:13;;;;;;;9.13;3.03;;;;;;;;;;4849843;29;20061;-61
2022/05/20 14:13:40;;;;;;;5.38;3.00;;;;;;;;;;4834073;29;20042;-61
2022/05/20 14:16:15;;;;;;;7.05;3.10;;;;;;;;;;4848879;29;20104;-61
2022/05/20 14:18:43;;;;;;;5.57;2.88;;;;;;;;;;4832040;29;20041;-61
2022/05/20 14:21:15;;;;;;;7.55;3.13;;;;;;;;;;4850036;29;20034;-60
2022/05/20 14:23:46;;;;;;;6.72;2.40;;;;;;;;;;4850385;29;20033;-60
2022/05/20 14:26:18;;;;;;;8.23;2.55;;;;;;;;;;4849740;29;20498;-60
2022/05/20 14:28:46;;;;;;;5.93;2.60;;;;;;;;;;4849170;29;20030;-61
2022/05/20 14:31:19;;;;;;;5.38;2.70;;;;;;;;;;4849333;29;20030;-61
2022/05/20 14:33:47;;;;;;;10.32;2.58;;;;;;;;;;4848840;29;20033;-60
2022/05/20 14:36:14;;;;;;;6.75;2.80;;;;;;;;;;4849116;29;20097;-61
2022/05/20 14:38:46;;;;;;;6.28;3.00;;;;;;;;;;4850698;29;20490;-61
2022/05/20 14:41:17;;;;;;;5.85;3.50;;;;;;;;;;4852244;29;20025;-61
2022/05/20 14:44:00;;;;;;;6.78;2.90;;;;;;;;;;4853651;29;20040;-61
2022/05/20 14:49:14;;;;;;;6.05;3.50;;;;;;;;;;4848281;29;20794;-60
2022/05/20 14:51:43;;;;;;;4.57;3.10;;;;;;;;;;4848710;29;20045;-59
2022/05/20 14:54:14;;;;;;;7.18;4.50;;;;;;;;;;4850090;29;20428;-60
2022/05/20 14:56:41;;;;;;;7.00;3.15;;;;;;;;;;4847757;29;20029;-61
2022/05/20 14:59:09;;;;;;;8.13;2.90;;;;;;;;;;4849525;29;20105;-60
2022/05/20 15:01:36;;;;;;;5.43;2.88;;;;;;;;;;4844785;29;20040;-61
2022/05/20 15:04:02;;;;;;;4.95;2.42;;;;;;;;;;4847049;29;20034;-60
2022/05/20 15:06:36;;;;;;;7.20;3.00;;;;;;;;;;4850854;29;20453;-60
2022/05/20 15:09:03;;;;;;;8.40;3.33;;;;;;;;;;4850621;29;20029;-62
2022/05/20 15:11:30;;;;;;;4.50;2.50;;;;;;;;;;4840883;29;20034;-62
2022/05/20 15:13:57;;;;;;;6.15;3.05;;;;;;;;;;4824018;29;20398;-63
2022/05/20 15:16:23;;;;;;;5.88;3.38;;;;;;;;;;4839984;29;20058;-61
2022/05/20 15:18:51;;;;;;;6.22;3.20;;;;;;;;;;4840251;29;20038;-62
2022/05/20 15:21:22;;;;;;;8.50;3.00;;;;;;;;;;4840091;29;20033;-60
2022/05/20 15:23:55;;;;;;;5.70;3.10;;;;;;;;;;4840342;29;20113;-62
2022/05/20 15:26:25;;;;;;;5.72;3.10;;;;;;;;;;4842632;29;20124;-61
2022/05/20 15:28:51;;;;;;;4.85;2.53;;;;;;;;;;4840096;29;20029;-60
2022/05/20 15:36:58;;;;;;;7.45;3.08;;;;;;;;;;4840086;29;20097;-61
2022/05/20 15:39:25;;;;;;;5.67;2.60;;;;;;;;;;4840269;29;20034;-61
2022/05/20 15:41:51;;;;;;;12.00;2.92;;;;;;;;;;4853012;29;20038;-60
2022/05/20 15:44:17;;;;;;;8.55;3.28;;;;;;;;;;4858277;29;20038;-61
2022/05/20 15:46:43;;;;;;;5.88;2.88;;;;;;;;;;4858429;29;20029;-61
2022/05/20 15:49:09;;;;;;;7.55;2.30;;;;;;;;;;4858184;29;20026;-61
2022/05/20 15:51:35;;;;;;;8.48;5.82;;;;;;;;;;4858451;29;20041;-61
2022/05/20 15:54:01;;;;;;;9.13;4.15;;;;;;;;;;4854665;29;20030;-60
2022/05/20 15:56:28;;;;;;;15.45;9.55;;;;;;;;;;4858485;29;20030;-60
2022/05/20 15:58:55;;;;;;;13.80;7.47;;;;;;;;;;4858203;29;20022;-61
2022/05/20 16:01:22;;;;;;;12.35;4.75;;;;;;;;;;4857997;29;20032;-61
2022/05/20 16:03:50;;;;;;;7.65;4.60;;;;;;;;;;4858820;29;20025;-61
2022/05/20 16:06:19;;;;;;;10.13;3.85;;;;;;;;;;4861872;29;20022;-60
2022/05/20 16:08:46;;;;;;;4.25;2.53;;;;;;;;;;4857567;29;20417;-62
2022/05/20 16:11:12;;;;;;;11.93;3.75;;;;;;;;;;4843792;29;20067;-60
2022/05/20 16:13:38;;;;;;;10.40;2.95;;;;;;;;;;4857938;29;20121;-60
2022/05/20 16:16:04;;;;;;;4.50;2.22;;;;;;;;;;4859355;29;20081;-60
2022/05/20 16:18:30;;;;;;;5.68;2.78;;;;;;;;;;4853860;29;20038;-61
2022/05/20 16:20:57;;;;;;;4.85;2.38;;;;;;;;;;4853669;29;20033;-61
2022/05/20 16:23:25;;;;;;;7.60;2.40;;;;;;;;;;4847504;29;20427;-62
2022/05/20 16:25:52;;;;;;;6.15;2.55;;;;;;;;;;4858659;29;20034;-62
2022/05/20 16:28:19;;;;;;;5.10;2.50;;;;;;;;;;4843246;29;20033;-61
2022/05/20 16:30:45;;;;;;;4.28;2.40;;;;;;;;;;4843096;29;20038;-62
2022/05/20 16:33:11;;;;;;;6.63;2.60;;;;;;;;;;4826096;29;20034;-60
2022/05/20 16:35:37;;;;;;;6.07;2.85;;;;;;;;;;4842797;29;20040;-60
2022/05/20 16:38:07;;;;;;;6.90;3.30;;;;;;;;;;4842618;29;20049;-62
2022/05/20 16:40:33;;;;;;;7.50;2.97;;;;;;;;;;4842630;29;20026;-62
2022/05/20 16:42:59;;;;;;;5.85;2.83;;;;;;;;;;4842876;29;20368;-62
2022/05/20 16:45:26;;;;;;;6.97;4.35;;;;;;;;;;4842975;29;20497;-60
2022/05/20 16:47:59;;;;;;;7.95;4.88;;;;;;;;;;4842449;29;20113;-60
2022/05/20 16:50:34;;;;;;;13.82;7.95;;;;;;;;;;4842763;29;20042;-62
2022/05/20 16:53:02;;;;;;;10.10;6.93;;;;;;;;;;4842805;29;20094;-61
2022/05/20 16:55:28;;;;;;;9.85;4.78;;;;;;;;;;4842976;29;20078;-61
2022/05/20 17:03:24;;;;;;;5.78;3.13;;;;;;;;;;4842933;29;20097;-59
2022/05/20 17:05:50;;;;;;;5.80;3.53;;;;;;;;;;4842817;29;20129;-60
2022/05/20 17:08:16;;;;;;;9.18;3.60;;;;;;;;;;4825561;29;20450;-60
2022/05/20 17:10:43;;;;;;;6.85;3.42;;;;;;;;;;4859956;29;20069;-60
2022/05/20 17:13:11;;;;;;;6.05;3.05;;;;;;;;;;4860643;29;20078;-61
2022/05/20 17:15:37;;;;;;;6.78;3.33;;;;;;;;;;4852592;29;20546;-61
2022/05/20 17:18:03;;;;;;;4.47;2.95;;;;;;;;;;4842417;29;20038;-59
2022/05/20 17:20:29;;;;;;;5.03;2.75;;;;;;;;;;4842326;29;20038;-62
2022/05/20 17:25:39;;;;;;;7.95;3.58;;;;;;;;;;4854968;29;20133;-60
2022/05/20 17:28:05;;;;;;;6.20;3.80;;;;;;;;;;4860714;29;20044;-62
2022/05/20 17:30:31;;;;;;;7.38;3.35;;;;;;;;;;4860549;29;20041;-60
2022/05/20 17:32:58;;;;;;;7.78;3.10;;;;;;;;;;4851815;29;20112;-61
2022/05/20 17:35:24;;;;;;;5.63;2.80;;;;;;;;;;4842171;29;20109;-60
2022/05/20 17:37:50;;;;;;;4.55;2.60;;;;;;;;;;4843093;29;20040;-60
2022/05/20 17:40:16;;;;;;;5.95;2.65;;;;;;;;;;4855779;29;20029;-59
2022/05/20 17:42:42;;;;;;;6.28;2.42;;;;;;;;;;4841758;29;20104;-61
2022/05/20 17:45:08;;;;;;;4.47;2.50;;;;;;;;;;4841868;29;20042;-60
2022/05/20 17:47:35;;;;;;;4.60;2.60;;;;;;;;;;4841623;29;20049;-61
2022/05/20 17:50:01;;;;;;;7.53;3.50;;;;;;;;;;4837356;29;20455;-59
2022/05/20 17:52:27;;;;;;;7.13;3.20;;;;;;;;;;4844524;29;20104;-59
2022/05/20 17:54:53;;;;;;;7.47;3.58;;;;;;;;;;4858460;29;20033;-59
2022/05/20 17:57:20;;;;;;;12.82;4.00;;;;;;;;;;4859086;29;20109;-59
2022/05/20 17:59:46;;;;;;;9.90;4.10;;;;;;;;;;4859423;29;20036;-59
2022/05/20 18:02:12;;;;;;;8.68;4.13;;;;;;;;;;4859146;29;20030;-60
2022/05/20 18:04:39;;;;;;;8.25;3.92;;;;;;;;;;4858865;29;20026;-61
2022/05/20 18:07:06;;;;;;;10.00;4.15;;;;;;;;;;4859160;29;20136;-60
2022/05/20 18:09:32;;;;;;;11.75;5.75;;;;;;;;;;4849506;29;20038;-59
2022/05/20 18:12:14;;;;;;;13.35;7.60;;;;;;;;;;4841115;29;20041;-59
2022/05/20 18:14:44;;;;;;;11.30;6.07;;;;;;;;;;4841089;29;20053;-60
2022/05/20 18:17:11;;;;;;;10.43;5.60;;;;;;;;;;4841109;29;20041;-59
2022/05/20 18:19:40;;;;;;;11.73;6.13;;;;;;;;;;4841026;29;20030;-60
2022/05/20 18:22:06;;;;;;;17.35;9.00;;;;;;;;;;4841459;29;20042;-59
2022/05/20 18:24:37;;;;;;;14.30;8.48;;;;;;;;;;4841158;29;20695;-60
2022/05/20 18:27:04;;;;;;;11.88;7.38;;;;;;;;;;4847525;29;20033;-59
2022/05/20 18:29:30;;;;;;;9.43;6.32;;;;;;;;;;4859895;29;20059;-59
2022/05/20 18:31:56;;;;;;;15.00;7.93;;;;;;;;;;4859515;29;20085;-60
2022/05/20 18:39:51;;;;;;;20.80;10.48;;;;;;;;;;4848052;29;20053;-61
2022/05/20 18:42:19;;;;;;;16.80;9.05;;;;;;;;;;4842926;29;20034;-61
2022/05/20 18:44:45;;;;;;;13.82;7.10;;;;;;;;;;4845007;29;20030;-61
2022/05/20 18:47:11;;;;;;;15.30;6.63;;;;;;;;;;4847413;29;20411;-60
2022/05/20 18:49:38;;;;;;;13.90;7.38;;;;;;;;;;4849809;29;20034;-61
2022/05/20 18:52:04;;;;;;;13.57;7.47;;;;;;;;;;4848213;29;20414;-62
2022/05/20 18:54:30;;;;;;;12.43;5.68;;;;;;;;;;4849284;29;20022;-61
2022/05/20 18:56:56;;;;;;;12.20;6.00;;;;;;;;;;4849992;29;20033;-61
2022/05/20 18:59:24;;;;;;;11.00;6.90;;;;;;;;;;4848079;29;20075;-60
2022/05/20 19:01:50;;;;;;;12.88;6.65;;;;;;;;;;4849050;29;20050;-61
2022/05/20 19:04:17;;;;;;;8.75;5.13;;;;;;;;;;4847633;29;20030;-61
2022/05/20 19:06:43;;;;;;;11.48;6.30;;;;;;;;;;4840142;29;20653;-61
2022/05/20 19:09:09;;;;;;;9.90;4.90;;;;;;;;;;4840235;29;20094;-60
2022/05/20 19:11:35;;;;;;;10.40;5.45;;;;;;;;;;4842977;29;20044;-59
2022/05/20 19:14:02;;;;;;;16.65;6.25;;;;;;;;;;4850552;29;20062;-61
2022/05/20 19:16:28;;;;;;;8.75;5.25;;;;;;;;;;4853180;29;20121;-61
2022/05/20 19:18:54;;;;;;;8.57;4.20;;;;;;;;;;4857365;29;20032;-59
2022/05/20 19:21:22;;;;;;;9.48;4.43;;;;;;;;;;4858407;29;20029;-61
2022/05/20 19:23:48;;;;;;;8.63;4.97;;;;;;;;;;4848455;29;20038;-60
2022/05/20 19:26:14;;;;;;;12.82;6.00;;;;;;;;;;4840228;29;20041;-60
2022/05/20 19:28:41;;;;;;;11.73;6.20;;;;;;;;;;4840459;29;20038;-60
2022/05/20 19:31:08;;;;;;;14.25;6.93;;;;;;;;;;4840087;29;20044;-59
2022/05/20 19:33:34;;;;;;;13.18;6.55;;;;;;;;;;4842669;29;20054;-60
2022/05/20 19:36:00;;;;;;;11.02;6.53;;;;;;;;;;4848646;29;20073;-61
2022/05/20 19:38:27;;;;;;;10.48;6.18;;;;;;;;;;4848215;29;20049;-61
2022/05/20 19:40:53;;;;;;;8.70;5.25;;;;;;;;;;4847144;29;20059;-60
2022/05/20 19:43:20;;;;;;;12.32;5.45;;;;;;;;;;4848438;29;20041;-61
2022/05/20 19:45:47;;;;;;;6.90;4.07;;;;;;;;;;4847771;29;20070;-61
2022/05/20 19:48:13;;;;;;;8.50;5.15;;;;;;;;;;4846392;29;20037;-61
2022/05/20 19:50:39;;;;;;;13.18;6.18;;;;;;;;;;4846875;29;20037;-60
2022/05/20 19:53:06;;;;;;;10.07;5.47;;;;;;;;;;4847357;29;20033;-59
2022/05/20 19:55:32;;;;;;;8.73;5.20;;;;;;;;;;4842980;29;20033;-61
2022/05/20 20:00:50;;;;;;;10.90;5.50;;;;;;;;;;4850927;29;20092;-58
2022/05/20 20:03:19;;;;;;;8.55;4.10;;;;;;;;;;4857977;29;20458;-56
2022/05/20 20:05:45;;;;;;;9.25;4.50;;;;;;;;;;4858251;29;20447;-55
2022/05/20 20:08:12;;;;;;;10.48;6.15;;;;;;;;;;4858102;29;20033;-57
2022/05/20 20:10:38;;;;;;;9.07;4.82;;;;;;;;;;4849191;29;20046;-63
2022/05/20 20:13:05;;;;;;;9.23;5.50;;;;;;;;;;4846605;29;20376;-60
2022/05/20 20:15:32;;;;;;;11.88;5.72;;;;;;;;;;4847690;29;20690;-61
2022/05/20 20:17:58;;;;;;;9.98;5.55;;;;;;;;;;4831601;29;20466;-61
2022/05/20 20:20:24;;;;;;;6.93;4.00;;;;;;;;;;4843228;29;20034;-63
2022/05/20 20:28:20;;;;;;;9.90;4.28;;;;;;;;;;4848614;29;20089;-58
2022/05/20 20:30:46;;;;;;;8.23;3.42;;;;;;;;;;4846552;29;20075;-60
2022/05/20 20:33:12;;;;;;;7.63;3.55;;;;;;;;;;4848181;29;20411;-60
2022/05/20 20:35:38;;;;;;;8.55;3.78;;;;;;;;;;4849247;29;20030;-58
2022/05/20 20:38:04;;;;;;;10.27;3.63;;;;;;;;;;4848491;29;20030;-58
2022/05/20 20:40:30;;;;;;;5.97;3.63;;;;;;;;;;4848240;29;20102;-58
2022/05/20 20:43:00;;;;;;;6.78;3.60;;;;;;;;;;4847744;29;20022;-55
2022/05/20 20:45:26;;;;;;;5.38;3.17;;;;;;;;;;4848575;29;20167;-59
2022/05/20 20:47:52;;;;;;;6.82;3.30;;;;;;;;;;4846475;29;20038;-58
2022/05/20 20:50:18;;;;;;;7.40;3.90;;;;;;;;;;4850023;29;20045;-55
2022/05/20 20:52:44;;;;;;;10.80;4.40;;;;;;;;;;4850769;29;20032;-57
2022/05/20 20:55:10;;;;;;;13.90;6.00;;;;;;;;;;4851660;29;20390;-55
2022/05/20 20:57:36;;;;;;;11.20;4.68;;;;;;;;;;4851058;29;20033;-58
2022/05/20 21:00:04;;;;;;;7.78;3.90;;;;;;;;;;4851345;29;20030;-57